createdAt,value
2022-11-09T00:01:40.021Z,24.55
2022-11-09T00:04:07.957Z,25.23
2022-11-09T00:06:35.537Z,25.35
2022-11-09T00:09:07.915Z,24.85
2022-11-09T00:11:35.778Z,23.92
2022-11-09T00:14:02.418Z,24.58
2022-11-09T00:16:29.178Z,24.40
2022-11-09T00:18:56.217Z,24.20
2022-11-09T00:21:24.871Z,24.95
2022-11-09T00:23:52.340Z,24.10
2022-11-09T00:26:20.743Z,23.60
2022-11-09T00:28:47.888Z,22.33
2022-11-09T00:31:17.615Z,22.95
2022-11-09T00:33:48.241Z,23.33
2022-11-09T00:36:14.932Z,23.88
2022-11-09T00:38:42.517Z,23.67
2022-11-09T00:41:10.901Z,23.58
2022-11-09T00:43:38.246Z,23.73
2022-11-09T00:46:05.650Z,23.13
2022-11-09T00:48:32.365Z,23.08
2022-11-09T00:50:59.589Z,22.75
2022-11-09T00:53:27.229Z,23.35
2022-11-09T00:55:55.545Z,22.73
2022-11-09T00:58:22.453Z,22.40
2022-11-09T01:00:49.395Z,24.80
2022-11-09T01:03:16.259Z,23.55
2022-11-09T01:05:43.136Z,23.50
2022-11-09T01:08:10.301Z,23.13
2022-11-09T01:10:40.528Z,24.35
2022-11-09T01:13:07.238Z,26.45
2022-11-09T01:15:34.041Z,25.73
2022-11-09T01:18:00.656Z,24.15
2022-11-09T01:20:27.246Z,23.45
2022-11-09T01:22:54.612Z,22.52
2022-11-09T01:25:21.540Z,22.52
2022-11-09T01:27:48.134Z,22.33
2022-11-09T01:30:15.149Z,22.58
2022-11-09T01:32:41.883Z,22.98
2022-11-09T01:35:08.978Z,22.80
2022-11-09T01:37:35.589Z,23.13
2022-11-09T01:40:02.164Z,24.35
2022-11-09T01:42:29.358Z,24.50
2022-11-09T01:45:17.814Z,23.63
2022-11-09T01:47:47.713Z,23.80
2022-11-09T01:50:18.616Z,24.05
2022-11-09T01:52:49.109Z,24.83
2022-11-09T01:55:20.826Z,25.75
2022-11-09T01:57:50.707Z,25.23
2022-11-09T02:00:18.184Z,25.70
2022-11-09T02:02:50.991Z,25.55
2022-11-09T02:05:21.918Z,25.20
2022-11-09T02:07:49.741Z,25.90
2022-11-09T02:10:31.962Z,25.58
2022-11-09T02:12:59.612Z,25.67
2022-11-09T02:15:27.015Z,25.50
2022-11-09T02:17:55.298Z,25.17
2022-11-09T02:20:23.376Z,24.38
2022-11-09T02:22:50.030Z,24.40
2022-11-09T02:25:17.716Z,23.15
2022-11-09T02:27:44.719Z,23.27
2022-11-09T02:30:12.753Z,23.05
2022-11-09T02:32:39.390Z,23.20
2022-11-09T02:35:06.212Z,22.80
2022-11-09T02:37:39.166Z,22.80
2022-11-09T02:40:17.130Z,21.63
2022-11-09T02:42:43.927Z,23.05
2022-11-09T02:45:10.953Z,22.13
2022-11-09T02:47:37.657Z,22.10
2022-11-09T02:50:04.714Z,20.13
2022-11-09T02:52:31.274Z,22.70
2022-11-09T02:54:57.908Z,21.30
2022-11-09T02:57:24.512Z,22.02
2022-11-09T02:59:51.279Z,22.15
2022-11-09T03:02:17.900Z,21.15
2022-11-09T03:04:44.502Z,22.48
2022-11-09T03:07:11.227Z,21.77
2022-11-09T03:09:37.995Z,22.33
2022-11-09T03:12:24.822Z,23.05
2022-11-09T03:14:51.521Z,22.88
2022-11-09T03:17:18.566Z,24.17
2022-11-09T03:19:45.335Z,23.95
2022-11-09T03:22:11.962Z,24.40
2022-11-09T03:24:38.861Z,24.30
2022-11-09T03:27:05.528Z,25.45
2022-11-09T03:29:32.154Z,25.10
2022-11-09T03:31:58.815Z,24.25
2022-11-09T03:34:25.401Z,25.33
2022-11-09T03:36:52.147Z,25.50
2022-11-09T03:39:18.739Z,25.80
2022-11-09T03:41:45.301Z,25.95
2022-11-09T03:44:12.282Z,24.48
2022-11-09T03:46:38.980Z,26.05
2022-11-09T03:49:05.723Z,26.45
2022-11-09T03:51:32.389Z,27.33
2022-11-09T03:53:59.144Z,26.92
2022-11-09T03:56:25.737Z,27.10
2022-11-09T03:58:52.327Z,25.98
2022-11-09T04:01:18.898Z,26.90
2022-11-09T04:03:45.488Z,26.45
2022-11-09T04:06:12.465Z,27.17
2022-11-09T04:08:39.082Z,26.65
2022-11-09T04:11:06.019Z,28.40
2022-11-09T04:13:33.017Z,26.25
2022-11-09T04:15:59.584Z,26.92
2022-11-09T04:18:26.511Z,27.63
2022-11-09T04:20:53.158Z,27.05
2022-11-09T04:23:20.036Z,28.23
2022-11-09T04:25:46.792Z,27.77
2022-11-09T04:28:13.450Z,28.25
2022-11-09T04:30:40.234Z,28.75
2022-11-09T04:33:06.898Z,27.25
2022-11-09T04:35:35.091Z,29.50
2022-11-09T04:38:13.125Z,28.98
2022-11-09T04:40:40.126Z,30.13
2022-11-09T04:43:08.336Z,28.55
2022-11-09T04:45:35.644Z,29.15
2022-11-09T04:48:04.945Z,30.75
2022-11-09T04:50:32.213Z,30.98
2022-11-09T04:53:10.929Z,31.63
2022-11-09T04:55:38.153Z,30.27
2022-11-09T04:58:05.366Z,30.60
2022-11-09T05:00:32.925Z,29.33
2022-11-09T05:03:01.890Z,29.58
2022-11-09T05:05:29.353Z,30.80
2022-11-09T05:07:56.400Z,30.85
2022-11-09T05:10:23.130Z,31.05
2022-11-09T05:12:49.909Z,32.20
2022-11-09T05:15:16.734Z,31.98
2022-11-09T05:17:43.363Z,31.75
2022-11-09T05:20:10.760Z,30.08
2022-11-09T05:22:58.860Z,31.00
2022-11-09T05:25:25.533Z,28.63
2022-11-09T05:27:52.582Z,28.88
2022-11-09T05:30:19.367Z,32.60
2022-11-09T05:32:45.907Z,32.30
2022-11-09T05:35:12.647Z,32.30
2022-11-09T05:37:40.343Z,30.90
2022-11-09T05:40:09.347Z,30.52
2022-11-09T05:42:40.586Z,28.55
2022-11-09T05:45:40.104Z,29.10
2022-11-09T05:47:56.199Z,28.38
2022-11-09T05:50:22.955Z,27.83
2022-11-09T05:52:49.529Z,27.10
2022-11-09T05:55:16.130Z,27.33
2022-11-09T05:57:42.654Z,26.52
2022-11-09T06:00:11.122Z,27.95
2022-11-09T06:02:38.547Z,28.10
2022-11-09T06:05:05.374Z,27.77
2022-11-09T06:07:33.192Z,27.58
2022-11-09T06:09:59.950Z,26.15
2022-11-09T06:12:26.639Z,25.58
2022-11-09T06:14:53.273Z,25.92
2022-11-09T06:17:19.870Z,24.67
2022-11-09T06:19:46.489Z,24.90
2022-11-09T06:22:13.175Z,26.85
2022-11-09T06:24:40.151Z,26.52
2022-11-09T06:27:06.915Z,23.10
2022-11-09T06:29:33.684Z,23.73
2022-11-09T06:32:00.498Z,23.73
2022-11-09T06:34:27.247Z,22.13
2022-11-09T06:36:54.155Z,22.45
2022-11-09T06:39:21.342Z,24.63
2022-11-09T06:41:48.018Z,23.58
2022-11-09T06:44:15.462Z,26.30
2022-11-09T06:46:42.082Z,22.92
2022-11-09T06:49:09.071Z,23.95
2022-11-09T06:51:35.759Z,23.13
2022-11-09T06:54:02.379Z,23.42
2022-11-09T06:56:30.571Z,23.48
2022-11-09T06:58:57.239Z,22.58
2022-11-09T07:01:28.226Z,24.02
2022-11-09T07:03:54.898Z,22.25
2022-11-09T07:09:05.788Z,22.02
2022-11-09T07:11:32.503Z,22.88
2022-11-09T07:13:59.582Z,22.52
2022-11-09T07:16:27.239Z,21.85
2022-11-09T07:18:53.855Z,21.02
2022-11-09T07:21:20.471Z,22.00
2022-11-09T07:23:48.430Z,22.38
2022-11-09T07:26:15.802Z,22.35
2022-11-09T07:28:42.784Z,23.85
2022-11-09T07:31:09.701Z,23.60
2022-11-09T07:33:36.629Z,22.40
2022-11-09T07:36:05.583Z,22.35
2022-11-09T07:38:32.683Z,22.10
2022-11-09T07:41:02.542Z,23.67
2022-11-09T07:43:29.724Z,22.63
2022-11-09T07:45:56.581Z,23.85
2022-11-09T07:48:23.399Z,24.75
2022-11-09T07:50:50.234Z,22.90
2022-11-09T07:53:17.629Z,24.65
2022-11-09T07:55:44.647Z,22.63
2022-11-09T07:58:14.127Z,23.67
2022-11-09T08:00:42.092Z,24.33
2022-11-09T08:03:09.493Z,22.13
2022-11-09T08:05:36.338Z,22.60
2022-11-09T08:08:06.363Z,22.58
2022-11-09T08:10:34.811Z,24.33
2022-11-09T08:13:03.997Z,23.08
2022-11-09T08:15:30.989Z,24.67
2022-11-09T08:18:03.346Z,24.33
2022-11-09T08:20:30.416Z,22.73
2022-11-09T08:23:02.364Z,23.73
2022-11-09T08:25:31.655Z,25.90
2022-11-09T08:27:58.783Z,26.05
2022-11-09T08:30:26.229Z,24.85
2022-11-09T08:32:53.374Z,25.63
2022-11-09T08:35:22.336Z,25.70
2022-11-09T08:37:50.846Z,26.55
2022-11-09T08:40:25.842Z,27.02
2022-11-09T08:42:53.551Z,27.65
2022-11-09T08:45:20.937Z,25.23
2022-11-09T08:47:47.964Z,26.67
2022-11-09T08:50:15.827Z,27.38
2022-11-09T08:52:42.949Z,27.75
2022-11-09T08:55:10.234Z,27.48
2022-11-09T08:57:36.836Z,26.95
2022-11-09T09:00:04.906Z,26.40
2022-11-09T09:02:31.491Z,27.33
2022-11-09T09:04:58.000Z,27.23
2022-11-09T09:07:24.781Z,27.95
2022-11-09T09:09:51.477Z,28.08
2022-11-09T09:12:18.165Z,27.58
2022-11-09T09:14:44.748Z,27.17
2022-11-09T09:17:11.846Z,27.88
2022-11-09T09:19:38.552Z,27.10
2022-11-09T09:22:05.973Z,27.85
2022-11-09T09:24:32.627Z,28.27
2022-11-09T09:26:59.378Z,28.13
2022-11-09T09:29:25.958Z,28.33
2022-11-09T09:31:52.493Z,28.17
2022-11-09T09:34:19.102Z,28.55
2022-11-09T09:36:48.331Z,28.38
2022-11-09T09:39:15.481Z,29.05
2022-11-09T09:42:02.330Z,30.52
2022-11-09T09:44:42.013Z,28.65
2022-11-09T09:47:27.776Z,25.90
2022-11-09T09:50:11.002Z,26.13
2022-11-09T09:53:23.702Z,27.77
2022-11-09T09:55:56.556Z,29.35
2022-11-09T09:58:29.023Z,29.90
2022-11-09T10:01:05.023Z,27.65
2022-11-09T10:03:31.802Z,33.00
2022-11-09T10:06:25.731Z,28.83
2022-11-09T10:09:20.120Z,29.08
2022-11-09T10:11:49.624Z,28.55
2022-11-09T10:14:40.561Z,30.13
2022-11-09T10:17:43.047Z,28.20
2022-11-09T10:20:22.268Z,28.77
2022-11-09T10:23:14.447Z,30.00
2022-11-09T10:29:09.253Z,29.73
2022-11-09T10:31:32.851Z,31.15
2022-11-09T10:34:16.527Z,30.38
2022-11-09T10:37:06.238Z,31.30
2022-11-09T10:39:42.552Z,30.05
2022-11-09T10:42:12.417Z,28.73
2022-11-09T10:44:38.986Z,30.13
2022-11-09T10:47:10.040Z,29.08
2022-11-09T10:49:38.041Z,28.75
2022-11-09T10:52:05.911Z,28.10
2022-11-09T10:54:38.350Z,29.00
2022-11-09T10:57:18.526Z,29.88
2022-11-09T10:59:57.499Z,29.77
2022-11-09T11:02:27.124Z,28.65
2022-11-09T11:04:59.422Z,29.42
2022-11-09T11:07:26.218Z,29.05
2022-11-09T11:09:52.926Z,29.73
2022-11-09T11:12:22.821Z,28.75
2022-11-09T11:14:49.932Z,28.23
2022-11-09T11:17:26.707Z,28.65
2022-11-09T11:19:53.397Z,27.55
2022-11-09T11:22:21.833Z,28.13
2022-11-09T11:24:58.667Z,28.40
2022-11-09T11:27:46.384Z,26.70
2022-11-09T11:30:19.529Z,28.33
2022-11-09T11:32:50.457Z,28.13
2022-11-09T11:35:28.631Z,28.08
2022-11-09T11:38:10.414Z,27.45
2022-11-09T11:41:24.917Z,31.92
2022-11-09T11:44:20.088Z,27.63
2022-11-09T11:47:10.303Z,28.35
2022-11-09T11:49:56.210Z,27.30
2022-11-09T11:52:43.378Z,29.55
2022-11-09T11:55:47.476Z,28.45
2022-11-09T11:58:26.027Z,27.85
2022-11-09T12:00:52.604Z,27.95
2022-11-09T12:03:50.683Z,25.52
2022-11-09T12:06:23.408Z,27.05
2022-11-09T12:09:15.511Z,26.73
2022-11-09T12:12:25.846Z,26.17
2022-11-09T12:15:43.107Z,27.30
2022-11-09T12:18:28.411Z,26.45
2022-11-09T12:21:04.030Z,25.75
2022-11-09T12:23:42.740Z,26.00
2022-11-09T12:26:35.192Z,26.70
2022-11-09T12:29:27.985Z,24.88
2022-11-09T12:32:04.205Z,25.15
2022-11-09T12:34:41.353Z,25.92
2022-11-09T12:37:13.730Z,26.05
2022-11-09T12:39:51.053Z,25.48
2022-11-09T12:42:24.631Z,27.17
2022-11-09T12:45:18.872Z,27.02
2022-11-09T12:47:46.269Z,26.88
2022-11-09T12:50:25.708Z,24.80
2022-11-09T12:52:53.696Z,24.23
2022-11-09T12:55:39.392Z,23.13
2022-11-09T12:58:06.334Z,23.88
2022-11-09T13:00:35.639Z,24.23
2022-11-09T13:03:14.651Z,24.17
2022-11-09T13:05:43.129Z,26.88
2022-11-09T13:08:18.814Z,25.50
2022-11-09T13:10:45.578Z,24.98
2022-11-09T13:13:12.057Z,25.65
2022-11-09T13:15:40.398Z,25.77
2022-11-09T13:18:35.428Z,25.10
2022-11-09T13:21:23.731Z,26.85
2022-11-09T13:24:10.367Z,25.45
2022-11-09T13:26:37.674Z,26.70
2022-11-09T13:29:22.425Z,27.83
2022-11-09T13:32:12.682Z,26.45
2022-11-09T13:34:43.636Z,26.75
2022-11-09T13:37:47.072Z,25.70
2022-11-09T13:40:31.952Z,25.67
2022-11-09T13:43:03.038Z,24.88
2022-11-09T13:45:39.055Z,25.60
2022-11-09T13:48:06.810Z,24.17
2022-11-09T13:50:34.859Z,25.00
2022-11-09T13:53:02.712Z,24.33
2022-11-09T13:55:36.793Z,25.17
2022-11-09T13:58:21.721Z,25.02
2022-11-09T14:00:48.989Z,26.60
2022-11-09T14:03:25.865Z,26.33
2022-11-09T14:05:59.659Z,25.75
2022-11-09T14:08:29.365Z,25.90
2022-11-09T14:11:10.937Z,26.40
2022-11-09T14:14:11.764Z,25.65
2022-11-09T14:16:47.640Z,24.50
2022-11-09T14:19:38.667Z,25.08
2022-11-09T14:22:16.347Z,25.65
2022-11-09T14:24:43.402Z,26.40
2022-11-09T14:27:10.015Z,26.65
2022-11-09T14:29:46.661Z,26.30
2022-11-09T14:32:24.720Z,25.13
2022-11-09T14:34:51.490Z,25.13
2022-11-09T14:37:19.052Z,24.17
2022-11-09T14:39:54.214Z,23.77
2022-11-09T14:42:23.656Z,25.08
2022-11-09T14:44:50.497Z,24.40
2022-11-09T14:47:29.303Z,25.10
2022-11-09T14:49:56.276Z,24.10
2022-11-09T14:52:27.874Z,24.92
2022-11-09T14:54:54.687Z,24.83
2022-11-09T14:57:22.977Z,26.17
2022-11-09T14:59:49.623Z,25.80
2022-11-09T15:02:19.710Z,26.73
2022-11-09T15:05:01.819Z,26.52
2022-11-09T15:07:33.170Z,27.23
2022-11-09T15:10:02.787Z,26.75
2022-11-09T15:12:30.611Z,27.48
2022-11-09T15:15:03.270Z,28.25
2022-11-09T15:17:36.383Z,29.42
2022-11-09T15:20:09.246Z,28.08
2022-11-09T15:22:48.580Z,29.13
2022-11-09T15:25:21.014Z,29.08
2022-11-09T15:28:17.040Z,28.20
2022-11-09T15:30:48.728Z,31.65
2022-11-09T15:33:18.450Z,30.83
2022-11-09T15:35:58.567Z,28.77
2022-11-09T15:38:34.478Z,29.77
2022-11-09T15:41:02.157Z,28.77
2022-11-09T15:43:29.054Z,30.13
2022-11-09T15:45:57.331Z,30.15
2022-11-09T15:48:24.042Z,29.95
2022-11-09T15:50:52.379Z,29.70
2022-11-09T15:53:19.103Z,29.92
2022-11-09T15:55:46.192Z,30.50
2022-11-09T15:58:14.832Z,31.00
2022-11-09T16:00:42.161Z,30.17
2022-11-09T16:03:10.226Z,30.45
2022-11-09T16:05:37.131Z,31.25
2022-11-09T16:08:04.119Z,30.77
2022-11-09T16:10:30.995Z,31.35
2022-11-09T16:12:57.786Z,31.90
2022-11-09T16:15:24.985Z,30.98
2022-11-09T16:17:53.387Z,33.05
2022-11-09T16:20:21.430Z,31.45
2022-11-09T16:22:48.526Z,31.55
2022-11-09T16:25:15.801Z,32.45
2022-11-09T16:27:50.126Z,34.30
2022-11-09T16:30:18.258Z,33.33
2022-11-09T16:32:45.017Z,33.15
2022-11-09T16:35:28.265Z,34.35
2022-11-09T16:37:58.067Z,34.65
2022-11-09T16:40:25.878Z,35.17
2022-11-09T16:42:52.588Z,35.60
2022-11-09T16:45:20.415Z,35.58
2022-11-09T16:47:56.417Z,35.10
2022-11-09T16:50:24.455Z,35.92
2022-11-09T16:52:51.035Z,36.35
2022-11-09T16:55:17.794Z,35.03
2022-11-09T16:57:46.178Z,35.63
2022-11-09T17:00:13.664Z,35.55
2022-11-09T17:02:40.321Z,37.17
2022-11-09T17:05:07.687Z,37.05
2022-11-09T17:07:42.185Z,36.40
2022-11-09T17:10:10.079Z,37.45
2022-11-09T17:12:36.664Z,37.78
2022-11-09T17:15:03.971Z,37.40
2022-11-09T17:17:30.815Z,35.15
2022-11-09T17:19:57.405Z,34.47
2022-11-09T17:22:24.161Z,34.85
2022-11-09T17:24:51.134Z,36.75
2022-11-09T17:27:17.807Z,36.20
2022-11-09T17:29:44.347Z,36.03
2022-11-09T17:32:11.556Z,34.97
2022-11-09T17:34:38.130Z,34.22
2022-11-09T17:37:05.736Z,33.92
2022-11-09T17:39:33.443Z,34.05
2022-11-09T17:42:00.007Z,35.22
2022-11-09T17:44:26.654Z,34.30
2022-11-09T17:46:53.546Z,35.90
2022-11-09T17:49:20.155Z,35.88
2022-11-09T17:51:47.137Z,36.17
2022-11-09T17:54:15.087Z,38.20
2022-11-09T17:56:42.137Z,37.97
2022-11-09T17:59:08.934Z,36.80
2022-11-09T18:01:41.055Z,38.75
2022-11-09T18:04:10.922Z,37.28
2022-11-09T18:06:38.574Z,33.28
2022-11-09T18:11:52.236Z,34.28
2022-11-09T18:14:18.862Z,34.15
2022-11-09T18:16:45.573Z,34.47
2022-11-09T18:19:12.513Z,33.30
2022-11-09T18:21:39.287Z,33.03
2022-11-09T18:24:06.369Z,33.88
2022-11-09T18:26:33.185Z,34.40
2022-11-09T18:29:00.312Z,34.92
2022-11-09T18:31:27.182Z,34.85
2022-11-09T18:33:54.025Z,35.40
2022-11-09T18:36:21.795Z,34.47
2022-11-09T18:38:51.166Z,33.75
2022-11-09T18:41:21.854Z,34.75
2022-11-09T18:43:49.895Z,34.83
2022-11-09T18:46:18.124Z,34.58
2022-11-09T18:48:45.442Z,32.85
2022-11-09T18:51:12.431Z,34.17
2022-11-09T18:53:41.683Z,33.92
2022-11-09T18:56:18.347Z,34.20
2022-11-09T18:58:46.054Z,34.95
2022-11-09T19:01:13.075Z,34.55
2022-11-09T19:03:39.907Z,36.40
2022-11-09T19:06:08.467Z,35.17
2022-11-09T19:08:54.086Z,35.95
2022-11-09T19:11:20.803Z,34.45
2022-11-09T19:13:47.657Z,33.67
2022-11-09T19:16:15.704Z,32.78
2022-11-09T19:18:42.604Z,33.03
2022-11-09T19:21:22.755Z,34.35
2022-11-09T19:23:49.295Z,31.58
2022-11-09T19:26:15.892Z,32.67
2022-11-09T19:28:42.650Z,32.10
2022-11-09T19:31:13.868Z,32.53
2022-11-09T19:33:40.457Z,33.13
2022-11-09T19:38:54.046Z,33.75
2022-11-09T19:41:21.794Z,34.33
2022-11-09T19:43:50.052Z,34.83
2022-11-09T19:46:17.902Z,34.65
2022-11-09T19:48:46.016Z,34.78
2022-11-09T19:51:14.687Z,35.55
2022-11-09T19:53:42.658Z,34.90
2022-11-09T19:56:11.565Z,34.55
2022-11-09T19:58:38.434Z,35.75
2022-11-09T20:01:10.276Z,34.28
2022-11-09T20:03:37.541Z,34.58
2022-11-09T20:06:05.599Z,33.95
2022-11-09T20:08:36.627Z,33.70
2022-11-09T20:11:09.216Z,33.03
2022-11-09T20:13:38.317Z,31.90
2022-11-09T20:16:07.416Z,32.70
2022-11-09T20:18:38.439Z,33.45
2022-11-09T20:21:06.993Z,33.03
2022-11-09T20:23:33.742Z,34.22
2022-11-09T20:26:07.781Z,35.53
2022-11-09T20:28:34.424Z,34.90
2022-11-09T20:31:01.160Z,35.90
2022-11-09T20:33:27.806Z,37.88
2022-11-09T20:35:55.441Z,37.60
2022-11-09T20:38:23.299Z,39.22
2022-11-09T20:40:57.458Z,46.08
2022-11-09T20:43:26.039Z,49.22
2022-11-09T20:45:53.825Z,58.60
2022-11-09T20:48:46.935Z,84.20
2022-11-09T20:51:09.776Z,59.50
2022-11-09T20:53:36.988Z,131.45
2022-11-09T20:56:04.114Z,121.38
2022-11-09T20:58:30.859Z,93.97
2022-11-09T21:01:12.900Z,105.75
2022-11-09T21:03:40.005Z,114.10
2022-11-09T21:06:07.695Z,126.80
2022-11-09T21:08:34.509Z,117.25
2022-11-09T21:11:03.022Z,134.65
2022-11-09T21:13:29.817Z,135.02
2022-11-09T21:16:03.779Z,124.68
2022-11-09T21:18:30.282Z,112.15
2022-11-09T21:20:56.825Z,97.95
2022-11-09T21:23:23.382Z,98.22
2022-11-09T21:26:08.403Z,96.80
2022-11-09T21:28:53.392Z,93.32
2022-11-09T21:31:19.888Z,85.75
2022-11-09T21:33:46.409Z,88.28
2022-11-09T21:36:14.723Z,92.47
2022-11-09T21:38:41.559Z,92.30
2022-11-09T21:41:27.846Z,87.70
2022-11-09T21:43:55.562Z,85.68
2022-11-09T21:46:25.229Z,83.25
2022-11-09T21:48:51.987Z,77.75
2022-11-09T21:51:18.665Z,73.32
2022-11-09T21:53:46.631Z,71.72
2022-11-09T21:56:13.530Z,76.05
2022-11-09T21:58:40.186Z,73.80
2022-11-09T22:01:10.834Z,71.57
2022-11-09T22:03:38.033Z,69.95
2022-11-09T22:06:05.114Z,63.70
2022-11-09T22:08:31.814Z,64.60
2022-11-09T22:11:13.954Z,69.25
2022-11-09T22:14:00.264Z,65.35
2022-11-09T22:16:29.878Z,64.45
2022-11-09T22:19:15.252Z,67.93
2022-11-09T22:21:44.844Z,66.05
2022-11-09T22:24:11.672Z,67.72
2022-11-09T22:26:38.399Z,72.40
2022-11-09T22:29:05.515Z,73.30
2022-11-09T22:31:32.179Z,70.55
2022-11-09T22:33:58.737Z,66.28
2022-11-09T22:36:25.364Z,60.25
2022-11-09T22:38:51.929Z,64.47
2022-11-09T22:41:18.498Z,66.78
2022-11-09T22:43:45.096Z,63.72
2022-11-09T22:46:14.368Z,65.22
2022-11-09T22:48:42.572Z,60.78
2022-11-09T22:51:12.266Z,62.00
2022-11-09T22:53:39.229Z,62.92
2022-11-09T22:56:06.339Z,61.50
2022-11-09T22:58:33.266Z,60.03
2022-11-09T23:01:09.164Z,60.00
2022-11-09T23:03:36.310Z,60.08
2022-11-09T23:06:05.997Z,56.33
2022-11-09T23:08:38.190Z,51.78
2022-11-09T23:11:11.699Z,50.90
2022-11-09T23:13:38.597Z,48.38
2022-11-09T23:16:07.897Z,48.22
2022-11-09T23:18:53.871Z,47.13
2022-11-09T23:21:34.119Z,45.33
2022-11-09T23:24:03.535Z,44.13
2022-11-09T23:26:31.349Z,45.05
2022-11-09T23:28:58.463Z,41.53
2022-11-09T23:31:26.902Z,40.78
2022-11-09T23:33:56.111Z,46.20
2022-11-09T23:36:24.756Z,46.15
2022-11-09T23:38:52.038Z,44.50
2022-11-09T23:41:19.358Z,51.33
2022-11-09T23:43:49.280Z,50.15
2022-11-09T23:46:17.862Z,46.80
2022-11-09T23:48:44.759Z,44.47
2022-11-09T23:51:11.664Z,42.17
2022-11-09T23:53:38.786Z,41.83
2022-11-09T23:56:11.680Z,41.88
2022-11-09T23:58:38.609Z,50.40
